Terminal Aerodrome Forecast
Issued by NWS

Home | Current Version | Previous Version | Text Only | Print | Product List | Glossary On
Versions: 1 2 3 4 5 6 7 8 9 10 11 12 13 14 15 16 17 18 19 20 21 22 23
000
FTUS44 KLZK 251100
TAFLLQ
TAF
KLLQ 251136Z 2512/2612 22010KT P6SM SCT005 OVC020 WS020/22040KT
      TEMPO 2512/2514 BKN005
     FM251700 23010G22KT P6SM VCSH SCT008 OVC020 WS020/23040KT
     FM251800 24012G25KT P6SM SCT020 BKN050=

USA.gov is the U.S. government's official web portal to all federal, state and local government web resources and services.